Latest Coastal Weather Observations for Hindmarsh Island

IDS60701

Issued at 11:25 am CST Monday 15 September 2014 (issued every 10 minutes, with the page automatically refreshed every 10 minutes)

About coastal observations | Map of coastal stations | Coastal observations for SA | Marine services | Other Formats
Station Details ID: 023894 Name: HINDMARSH ISLAND AWS Lat: -35.52 Lon: 138.82 Height: 11.0 m
Data from the previous 72 hours. | See also: Recent months at Hindmarsh Island
Date/Time
CST
Temp

°C
Wind Pressure Rain
since 9am
mm
Weather Cloud Vis
km
Sea
Height
m
Swell
Dir
 
Speed
knots
Gust
knots
hPa Trend Height
m
Period
s
Dir
15/11:00am 16.3 SW 16 23 1010.2 - 0.0 - - - - - - -
15/10:30am 16.1 SW 14 18 1009.8 - 0.0 - - - - - - -
15/10:00am 15.3 SW 12 16 1009.6 - 0.0 - - - - - - -
15/09:30am 16.4 SW 9 11 1009.4 - 0.0 - - - - - - -
15/09:00am 15.5 SW 5 7 1009.3 - 0.0 Fine Mostly cloudy 10 - - - -
15/08:30am 15.2 W 2 4 1009.0 - 0.0 - - - - - - -
15/08:00am 14.6 NNW 5 6 1009.0 - 0.0 - - - - - - -
15/07:30am 13.3 N 4 5 1008.9 - 0.0 - - - - - - -
15/07:00am 13.1 N 2 4 1008.7 - 0.0 - - - - - - -
15/06:30am 13.6 N 6 9 1008.5 - 0.0 - - - - - - -
15/06:00am 13.9 NNW 7 9 1008.7 - 0.0 - - - - - - -
15/05:30am 13.7 NNW 8 12 1008.6 - 0.0 - - - - - - -
15/05:00am 13.8 NNW 15 21 1008.7 - 0.0 - - - - - - -
15/04:30am 12.9 NNW 10 13 1008.8 - 0.0 - - - - - - -
15/04:00am 12.2 NNE 3 5 1009.1 - 0.0 - - - - - - -
15/03:30am 13.2 NNW 4 6 1009.3 - 0.0 - - - - - - -
15/03:00am 13.6 NW 7 11 1009.5 - 0.0 - - - - - - -
15/02:30am 13.8 NW 7 11 1009.6 - 0.0 - - - - - - -
15/02:00am 14.3 NW 8 11 1009.7 - 0.0 - - - - - - -
15/01:30am 14.1 NW 8 11 1010.1 - 0.0 - - - - - - -
15/01:00am 13.6 NNW 6 9 1010.5 - 0.0 - - - - - - -
15/12:30am 14.2 N 10 11 1010.8 - 0.0 - - - - - - -
15/12:00am 14.0 NE 11 14 1010.4 - 0.0 - - - - - - -
 
Date/Time
CST
Temp

°C
Wind Pressure Rain
since 9am
mm
Weather Cloud Vis
km
Sea
Height
m
Swell
Dir
 
Speed
knots
Gust
knots
hPa Trend Height
m
Period
s
Dir
14/11:30pm 13.3 NE 11 13 1010.8 - 0.0 - - - - - - -
14/11:00pm 14.1 NNE 8 10 1011.6 - 0.0 - - - - - - -
14/10:30pm 14.9 NE 11 15 1011.9 - 0.0 - - - - - - -
14/10:00pm 15.5 N 9 11 1012.3 - 0.0 - - - - - - -
14/09:30pm 15.2 NNE 10 14 1012.3 - 0.0 - - - - - - -
14/09:00pm 15.3 NNE 9 11 1012.6 - 0.0 - - - - - - -
14/08:30pm 14.7 N 6 8 1012.7 - 0.0 - - - - - - -
14/08:00pm 14.6 N 7 8 1012.9 - 0.0 - - - - - - -
14/07:30pm 14.3 NE 10 12 1013.1 - 0.0 - - - - - - -
14/07:00pm 13.0 ENE 8 9 1013.4 - 0.0 - - - - - - -
14/06:30pm 13.5 E 5 6 1013.9 - 0.0 - - - - - - -
14/06:00pm 14.7 E 6 8 1014.3 - 0.0 - - - - - - -
14/05:30pm 15.3 ESE 13 15 1014.3 - 0.0 - - - - - - -
14/05:00pm 15.7 SE 13 15 1014.3 - 0.0 - - - - - - -
14/04:30pm 16.9 ESE 10 11 1014.5 - 0.0 - - - - - - -
14/04:00pm 16.2 ESE 11 13 1014.9 - 0.0 - - - - - - -
14/03:30pm 16.2 SE 13 14 1015.3 - 0.0 - - - - - - -
14/03:00pm 16.6 SE 15 17 1015.4 - 0.0 - - - - - - -
14/02:30pm 16.5 SE 13 16 1015.9 - 0.0 - - - - - - -
14/02:00pm 17.1 SE 12 15 1016.5 - 0.0 - - - - - - -
14/01:30pm 15.8 SSE 13 15 1017.3 - 0.0 - - - - - - -
14/01:00pm 16.8 SSE 14 16 1017.3 - 0.0 - - - - - - -
14/12:30pm 16.4 SSE 14 15 1017.7 - 0.0 - - - - - - -
14/12:00pm 16.9 SE 6 12 1018.5 - 0.0 - - - - - - -
14/11:30am 16.5 N 8 11 1018.8 - 0.0 - - - - - - -
14/11:00am 16.4 ESE 7 9 1018.9 - 0.0 - - - - - - -
14/10:30am 14.7 SSE 7 9 1019.9 - 0.0 - - - - - - -
14/10:00am 13.9 SSE 6 8 1020.0 - 0.0 - - - - - - -
14/09:30am 13.8 SSE 8 9 1020.1 - 0.0 - - - - - - -
14/09:00am 13.9 S 4 7 1020.5 - 0.0 - - - - - - -
14/08:30am 13.0 N 2 4 1020.2 - 0.0 - - - - - - -
14/08:00am 11.8 N 1 3 1020.0 - 0.0 - - - - - - -
14/07:30am 10.2 N 5 6 1019.8 - 0.0 - - - - - - -
14/07:00am 9.1 N 7 7 1019.5 - 0.0 - - - - - - -
14/06:30am 8.9 WNW 4 5 1019.7 - 0.0 - - - - - - -
14/06:00am 8.9 W 5 6 1019.6 - 0.0 - - - - - - -
14/05:30am 8.8 WNW 5 6 1019.5 - 0.0 - - - - - - -
14/05:00am 9.0 NW 5 7 1019.6 - 0.0 - - - - - - -
14/04:30am 9.4 W 4 5 1019.1 - 0.0 - - - - - - -
14/04:00am 8.8 W 4 5 1019.2 - 0.0 - - - - - - -
14/03:30am 9.0 NW 3 6 1019.4 - 0.0 - - - - - - -
14/03:00am 8.7 NNW 2 4 1019.4 - 0.0 - - - - - - -
14/02:30am 8.7 CALM 0 0 1019.7 - 0.0 - - - - - - -
14/02:00am 8.6 NNW 4 4 1020.2 - 0.0 - - - - - - -
14/01:30am 9.0 N 3 4 1020.2 - 0.0 - - - - - - -
14/01:00am 8.6 CALM 0 3 1020.4 - 0.0 - - - - - - -
14/12:30am 9.6 NW 3 4 1020.9 - 0.0 - - - - - - -
14/12:00am 9.7 NW 4 5 1021.2 - 0.0 - - - - - - -
 
Date/Time
CST
Temp

°C
Wind Pressure Rain
since 9am
mm
Weather Cloud Vis
km
Sea
Height
m
Swell
Dir
 
Speed
knots
Gust
knots
hPa Trend Height
m
Period
s
Dir
13/11:30pm 9.9 NW 5 6 1021.7 - 0.0 - - - - - - -
13/11:00pm 9.7 NW 5 6 1021.7 - 0.0 - - - - - - -
13/10:30pm 9.9 NNW 6 6 1021.7 - 0.0 - - - - - - -
13/10:00pm 10.3 N 5 5 1021.9 - 0.0 - - - - - - -
13/09:30pm 10.5 ESE 2 4 1022.0 - 0.0 - - - - - - -
13/09:00pm 12.5 S 1 3 1022.2 - 0.0 - - - - - - -
13/08:30pm 12.6 S 4 5 1022.1 - 0.0 - - - - - - -
13/08:00pm 12.5 SSW 7 7 1022.2 - 0.0 - - - - - - -
13/07:30pm 12.9 SSW 8 9 1022.1 - 0.0 - - - - - - -
13/07:00pm 13.0 SSW 8 10 1021.6 - 0.0 - - - - - - -
13/06:30pm 13.3 SSW 9 11 1021.3 - 0.0 - - - - - - -
13/06:00pm 13.6 SSW 9 10 1021.0 - 0.0 - - - - - - -
13/05:30pm 14.3 S 9 11 1020.7 - 0.0 - - - - - - -
13/05:00pm 15.0 S 10 11 1020.5 - 0.0 - - - - - - -
13/04:30pm 15.5 S 11 13 1020.3 - 0.0 - - - - - - -
13/04:00pm 16.2 S 10 13 1020.3 - 0.0 - - - - - - -
13/03:30pm 16.4 S 12 13 1020.4 - 0.0 - - - - - - -
13/03:00pm 17.1 S 13 14 1020.7 - 0.0 - - - - - - -
13/02:30pm 17.8 S 10 12 1020.6 - 0.0 - - - - - - -
13/02:00pm 19.0 SSW 10 12 1021.0 - 0.0 - - - - - - -
13/01:30pm 18.9 SSW 9 11 1021.4 - 0.0 - - - - - - -
13/01:00pm 19.7 SW 11 14 1021.6 - 0.0 - - - - - - -
13/12:30pm 20.0 N 7 10 1022.0 - 0.0 - - - - - - -
13/12:00pm 19.3 NNE 6 9 1022.5 - 0.0 - - - - - - -
13/11:30am 18.6 NNE 9 12 1022.8 - 0.0 - - - - - - -
13/11:00am 16.7 NE 10 13 1023.3 - 0.0 - - - - - - -
13/10:30am 15.7 NNE 11 14 1023.9 - 0.0 - - - - - - -
13/10:00am 13.8 NNE 10 13 1024.3 - 0.0 - - - - - - -
13/09:30am 14.0 NE 10 13 1024.8 - 0.0 - - - - - - -
13/09:00am 12.2 NE 10 13 1025.0 - 0.0 Haze Clear 6 - - - -
13/08:30am 10.7 NNE 10 13 1025.2 - 0.0 - - - - - - -
13/08:00am 10.1 NE 10 13 1025.2 - 0.0 - - - - - - -
13/07:30am 9.1 NNE 8 10 1024.9 - 0.0 - - - - - - -
13/07:00am 8.0 N 8 11 1024.9 - 0.0 - - - - - - -
13/06:30am 7.3 N 9 10 1024.6 - 0.0 - - - - - - -
13/06:00am 6.6 N 7 8 1024.6 - 0.0 - - - - - - -
13/05:30am 6.0 N 3 6 1024.8 - 0.0 - - - - - - -
13/05:00am 6.3 N 5 6 1024.9 - 0.0 - - - - - - -
13/04:30am 6.5 N 6 7 1024.7 - 0.0 - - - - - - -
13/04:00am 7.0 N 6 7 1024.9 - 0.0 - - - - - - -
13/03:30am 7.5 N 7 8 1025.1 - 0.0 - - - - - - -
13/03:00am 8.0 N 5 5 1025.3 - 0.0 - - - - - - -
13/02:30am 8.2 N 5 6 1025.7 - 0.0 - - - - - - -
13/02:00am 8.3 N 6 6 1025.7 - 0.0 - - - - - - -
13/01:30am 8.6 N 5 7 1025.7 - 0.0 - - - - - - -
13/01:00am 8.5 N 6 8 1025.9 - 0.0 - - - - - - -
13/12:30am 8.4 N 6 7 1026.0 - 0.0 - - - - - - -
13/12:00am 8.4 N 6 7 1026.1 - 0.0 - - - - - - -
 
Date/Time
CST
Temp

°C
Wind Pressure Rain
since 9am
mm
Weather Cloud Vis
km
Sea
Height
m
Swell
Dir
 
Speed
knots
Gust
knots
hPa Trend Height
m
Period
s
Dir
12/11:30pm 8.9 N 7 8 1026.2 - 0.0 - - - - - - -
12/11:00pm 9.2 N 6 7 1026.3 - 0.0 - - - - - - -
12/10:30pm 9.4 N 5 6 1026.5 - 0.0 - - - - - - -
12/10:00pm 9.7 NNE 6 7 1026.6 - 0.0 - - - - - - -
12/09:30pm 10.4 NE 5 6 1026.9 - 0.0 - - - - - - -
12/09:00pm 10.1 E 5 6 1026.9 - 0.0 - - - - - - -
12/08:30pm 10.8 ESE 6 9 1027.0 - 0.0 - - - - - - -
12/08:00pm 12.3 SE 8 10 1026.6 - 0.0 - - - - - - -
12/07:30pm 12.4 SSE 8 9 1026.7 - 0.0 - - - - - - -
12/07:00pm 12.6 SSE 8 10 1026.6 - 0.0 - - - - - - -
12/06:30pm 13.0 S 9 11 1026.6 - 0.0 - - - - - - -
12/06:00pm 13.3 S 11 13 1026.5 - 0.0 - - - - - - -
12/05:30pm 13.5 S 11 12 1026.2 - 0.0 - - - - - - -
12/05:00pm 13.9 S 10 11 1025.9 - 0.0 - - - - - - -
12/04:30pm 14.5 S 10 11 1025.8 - 0.0 - - - - - - -
12/04:00pm 14.3 S 10 11 1025.8 - 0.0 - - - - - - -
12/03:30pm 14.5 S 12 14 1026.1 - 0.0 - - - - - - -
12/03:00pm 15.4 S 13 14 1026.1 - 0.0 - - - - - - -
12/02:30pm 16.2 SSE 10 12 1026.3 - 0.0 - - - - - - -
12/02:00pm 16.5 SE 9 11 1026.6 - 0.0 - - - - - - -
12/01:30pm 15.3 SE 10 13 1026.6 - 0.0 - - - - - - -
12/01:00pm 15.1 SSE 10 12 1027.0 - 0.0 - - - - - - -
12/12:30pm 15.0 S 10 13 1027.2 - 0.0 - - - - - - -
12/12:00pm 16.0 NNE 5 8 1027.6 - 0.0 - - - - - - -
12/11:30am 15.2 N 5 10 1027.8 - 0.0 - - - - - - -

Other Formats:

Comma delimited format used in spreadsheet applications
http://www.bom.gov.au/fwo/IDS60701/IDS60701.94677.axf

JavaScript Object Notation format (JSON) in row-major order
http://www.bom.gov.au/fwo/IDS60701/IDS60701.94677.json